sensor_id;sensor_type;location;lat;lon;timestamp;pressure;altitude;pressure_sealevel;temperature;humidity
50105;BME280;47690;39.202;-77.198;2024-03-23T00:53:07;100662.34;;;11.27;35.44
50105;BME280;47690;39.202;-77.198;2024-03-23T00:55:36;100658.06;;;11.24;35.33
50105;BME280;47690;39.202;-77.198;2024-03-23T00:58:06;100664.06;;;11.26;35.36
50105;BME280;47690;39.202;-77.198;2024-03-23T01:00:38;100661.47;;;11.26;35.55
50105;BME280;47690;39.202;-77.198;2024-03-23T01:03:07;100674.41;;;11.23;35.39
50105;BME280;47690;39.202;-77.198;2024-03-23T01:05:36;100659.00;;;11.18;35.59
50105;BME280;47690;39.202;-77.198;2024-03-23T01:08:07;100665.88;;;11.19;35.57
50105;BME280;47690;39.202;-77.198;2024-03-23T01:10:37;100666.75;;;11.17;35.50
50105;BME280;47690;39.202;-77.198;2024-03-23T01:13:08;100670.22;;;11.13;35.65
50105;BME280;47690;39.202;-77.198;2024-03-23T01:15:35;100672.78;;;11.13;35.83
50105;BME280;47690;39.202;-77.198;2024-03-23T01:18:05;100676.22;;;11.15;35.85
50105;BME280;47690;39.202;-77.198;2024-03-23T01:20:35;100671.91;;;11.17;35.78
50105;BME280;47690;39.202;-77.198;2024-03-23T01:23:07;100668.44;;;11.19;36.08
50105;BME280;47690;39.202;-77.198;2024-03-23T01:25:35;100667.56;;;11.19;35.73
50105;BME280;47690;39.202;-77.198;2024-03-23T01:28:08;100662.41;;;11.19;36.07
50105;BME280;47690;39.202;-77.198;2024-03-23T01:30:37;100640.09;;;11.16;36.04
50105;BME280;47690;39.202;-77.198;2024-03-23T01:33:10;100633.25;;;11.15;36.21
50105;BME280;47690;39.202;-77.198;2024-03-23T01:35:39;100629.78;;;11.18;35.85
50105;BME280;47690;39.202;-77.198;2024-03-23T01:38:08;100612.59;;;11.18;35.91
50105;BME280;47690;39.202;-77.198;2024-03-23T01:40:38;100618.59;;;11.19;35.63
50105;BME280;47690;39.202;-77.198;2024-03-23T01:43:09;100613.41;;;11.22;36.28
50105;BME280;47690;39.202;-77.198;2024-03-23T01:45:36;100607.38;;;11.23;36.10
50105;BME280;47690;39.202;-77.198;2024-03-23T01:48:07;100600.47;;;11.24;36.25
50105;BME280;47690;39.202;-77.198;2024-03-23T01:50:36;100600.53;;;11.22;35.85
50105;BME280;47690;39.202;-77.198;2024-03-23T01:53:08;100602.25;;;11.20;36.28
50105;BME280;47690;39.202;-77.198;2024-03-23T01:55:36;100602.25;;;11.20;36.04
50105;BME280;47690;39.202;-77.198;2024-03-23T01:58:07;100604.84;;;11.18;36.10
50105;BME280;47690;39.202;-77.198;2024-03-23T02:00:36;100604.81;;;11.20;36.43
50105;BME280;47690;39.202;-77.198;2024-03-23T02:03:25;100596.19;;;11.23;36.89
50105;BME280;47690;39.202;-77.198;2024-03-23T02:05:54;100591.91;;;11.23;36.35
50105;BME280;47690;39.202;-77.198;2024-03-23T02:08:23;100592.78;;;11.22;36.39
50105;BME280;47690;39.202;-77.198;2024-03-23T02:10:50;100586.75;;;11.22;36.33
50105;BME280;47690;39.202;-77.198;2024-03-23T02:13:19;100579.91;;;11.19;36.53
50105;BME280;47690;39.202;-77.198;2024-03-23T02:15:47;100571.34;;;11.18;36.41
50105;BME280;47690;39.202;-77.198;2024-03-23T02:18:14;100570.47;;;11.19;36.40
50105;BME280;47690;39.202;-77.198;2024-03-23T02:20:44;100566.13;;;11.20;36.58
50105;BME280;47690;39.202;-77.198;2024-03-23T02:23:15;100561.03;;;11.15;37.03
50105;BME280;47690;39.202;-77.198;2024-03-23T02:25:44;100555.91;;;11.14;36.62
50105;BME280;47690;39.202;-77.198;2024-03-23T02:28:13;100555.94;;;11.12;36.93
50105;BME280;47690;39.202;-77.198;2024-03-23T02:30:41;100561.09;;;11.12;36.74
50105;BME280;47690;39.202;-77.198;2024-03-23T02:33:10;100560.16;;;11.16;36.89
50105;BME280;47690;39.202;-77.198;2024-03-23T02:35:38;100572.16;;;11.19;37.22
50105;BME280;47690;39.202;-77.198;2024-03-23T02:38:08;100562.69;;;11.21;37.63
50105;BME280;47690;39.202;-77.198;2024-03-23T02:40:37;100568.72;;;11.20;38.26
50105;BME280;47690;39.202;-77.198;2024-03-23T02:43:05;100558.41;;;11.20;38.09
50105;BME280;47690;39.202;-77.198;2024-03-23T02:45:35;100555.88;;;11.18;38.60
50105;BME280;47690;39.202;-77.198;2024-03-23T02:48:07;100553.28;;;11.18;39.52
50105;BME280;47690;39.202;-77.198;2024-03-23T02:50:36;100554.19;;;11.16;38.80
50105;BME280;47690;39.202;-77.198;2024-03-23T02:53:11;100556.75;;;11.16;40.16
50105;BME280;47690;39.202;-77.198;2024-03-23T02:55:43;100544.75;;;11.15;40.41
50105;BME280;47690;39.202;-77.198;2024-03-23T02:58:11;100542.16;;;11.15;40.16
50105;BME280;47690;39.202;-77.198;2024-03-23T03:00:38;100520.69;;;11.13;40.43
50105;BME280;47690;39.202;-77.198;2024-03-23T03:03:06;100512.97;;;11.11;40.36
50105;BME280;47690;39.202;-77.198;2024-03-23T03:05:35;100511.25;;;11.10;41.10
50105;BME280;47690;39.202;-77.198;2024-03-23T03:08:07;100508.69;;;11.10;41.03
50105;BME280;47690;39.202;-77.198;2024-03-23T03:10:42;100500.13;;;11.08;40.73
50105;BME280;47690;39.202;-77.198;2024-03-23T03:13:10;100499.28;;;11.06;41.11
50105;BME280;47690;39.202;-77.198;2024-03-23T03:15:37;100491.56;;;11.04;41.08
50105;BME280;47690;39.202;-77.198;2024-03-23T03:18:07;100485.59;;;11.02;41.42
50105;BME280;47690;39.202;-77.198;2024-03-23T03:20:38;100477.84;;;11.02;41.83
50105;BME280;47690;39.202;-77.198;2024-03-23T03:23:07;100471.88;;;11.00;41.51
50105;BME280;47690;39.202;-77.198;2024-03-23T03:25:38;100469.31;;;10.99;42.03
50105;BME280;47690;39.202;-77.198;2024-03-23T03:28:06;100459.00;;;10.97;42.01
50105;BME280;47690;39.202;-77.198;2024-03-23T03:30:35;100446.13;;;10.97;42.22
50105;BME280;47690;39.202;-77.198;2024-03-23T03:33:06;100447.88;;;10.97;42.71
50105;BME280;47690;39.202;-77.198;2024-03-23T03:35:40;100436.69;;;10.96;42.93
50105;BME280;47690;39.202;-77.198;2024-03-23T03:38:16;100440.09;;;10.98;43.12
50105;BME280;47690;39.202;-77.198;2024-03-23T03:40:59;100440.97;;;10.96;42.67
50105;BME280;47690;39.202;-77.198;2024-03-23T03:43:27;100431.56;;;10.95;42.41
50105;BME280;47690;39.202;-77.198;2024-03-23T03:45:59;100423.88;;;10.93;42.77
50105;BME280;47690;39.202;-77.198;2024-03-23T03:48:27;100417.84;;;10.91;42.51
50105;BME280;47690;39.202;-77.198;2024-03-23T03:50:54;100412.75;;;10.89;42.73
50105;BME280;47690;39.202;-77.198;2024-03-23T03:53:21;100411.00;;;10.88;42.67
50105;BME280;47690;39.202;-77.198;2024-03-23T03:55:48;100412.75;;;10.88;42.55
50105;BME280;47690;39.202;-77.198;2024-03-23T03:58:16;100407.63;;;10.85;43.02
50105;BME280;47690;39.202;-77.198;2024-03-23T04:00:44;100399.06;;;10.84;43.10
50105;BME280;47690;39.202;-77.198;2024-03-23T04:03:18;100399.09;;;10.81;43.02
50105;BME280;47690;39.202;-77.198;2024-03-23T04:05:53;100392.22;;;10.80;43.82
50105;BME280;47690;39.202;-77.198;2024-03-23T04:08:21;100386.25;;;10.78;43.20
50105;BME280;47690;39.202;-77.198;2024-03-23T04:10:50;100383.69;;;10.76;43.47
50105;BME280;47690;39.202;-77.198;2024-03-23T04:13:25;100382.00;;;10.75;44.05
50105;BME280;47690;39.202;-77.198;2024-03-23T04:15:56;100368.28;;;10.73;43.75
50105;BME280;47690;39.202;-77.198;2024-03-23T04:18:23;100364.03;;;10.71;43.64
50105;BME280;47690;39.202;-77.198;2024-03-23T04:20:52;100375.19;;;10.71;43.53
50105;BME280;47690;39.202;-77.198;2024-03-23T04:23:19;100370.06;;;10.70;43.88
50105;BME280;47690;39.202;-77.198;2024-03-23T04:25:48;100366.66;;;10.68;43.73
50105;BME280;47690;39.202;-77.198;2024-03-23T04:28:20;100356.38;;;10.66;44.26
50105;BME280;47690;39.202;-77.198;2024-03-23T04:30:49;100352.91;;;10.65;44.35
50105;BME280;47690;39.202;-77.198;2024-03-23T04:33:17;100348.69;;;10.63;44.08
50105;BME280;47690;39.202;-77.198;2024-03-23T04:35:49;100348.69;;;10.61;44.06
50105;BME280;47690;39.202;-77.198;2024-03-23T04:38:18;100347.00;;;10.60;44.07
50105;BME280;47690;39.202;-77.198;2024-03-23T04:40:58;100341.00;;;10.60;44.85
50105;BME280;47690;39.202;-77.198;2024-03-23T04:43:26;100334.16;;;10.57;44.00
50105;BME280;47690;39.202;-77.198;2024-03-23T04:45:54;100321.31;;;10.56;44.23
50105;BME280;47690;39.202;-77.198;2024-03-23T04:48:24;100318.75;;;10.54;44.74
50105;BME280;47690;39.202;-77.198;2024-03-23T04:50:55;100324.81;;;10.50;44.65
50105;BME280;47690;39.202;-77.198;2024-03-23T04:53:24;100322.28;;;10.48;44.69
50105;BME280;47690;39.202;-77.198;2024-03-23T04:56:01;100320.53;;;10.47;44.96
50105;BME280;47690;39.202;-77.198;2024-03-23T04:58:41;100308.59;;;10.45;44.49
50105;BME280;47690;39.202;-77.198;2024-03-23T05:01:13;100307.72;;;10.44;45.00
50105;BME280;47690;39.202;-77.198;2024-03-23T05:03:41;100310.28;;;10.44;44.86
50105;BME280;47690;39.202;-77.198;2024-03-23T05:06:14;100305.16;;;10.44;45.56
50105;BME280;47690;39.202;-77.198;2024-03-23T05:08:48;100300.00;;;10.43;45.26
50105;BME280;47690;39.202;-77.198;2024-03-23T05:11:21;100302.59;;;10.39;44.71
50105;BME280;47690;39.202;-77.198;2024-03-23T05:13:48;100294.00;;;10.39;45.23
50105;BME280;47690;39.202;-77.198;2024-03-23T05:16:19;100291.44;;;10.39;45.32
50105;BME280;47690;39.202;-77.198;2024-03-23T05:19:08;100294.88;;;10.39;46.30
50105;BME280;47690;39.202;-77.198;2024-03-23T05:21:38;100291.50;;;10.36;45.38
50105;BME280;47690;39.202;-77.198;2024-03-23T05:24:18;100289.78;;;10.35;45.80
50105;BME280;47690;39.202;-77.198;2024-03-23T05:26:46;100278.63;;;10.33;45.46
50105;BME280;47690;39.202;-77.198;2024-03-23T05:29:22;100276.94;;;10.32;46.13
50105;BME280;47690;39.202;-77.198;2024-03-23T05:31:53;100271.84;;;10.30;45.77
50105;BME280;47690;39.202;-77.198;2024-03-23T05:34:26;100270.16;;;10.28;45.42
50105;BME280;47690;39.202;-77.198;2024-03-23T05:36:53;100263.31;;;10.27;45.56
50105;BME280;47690;39.202;-77.198;2024-03-23T05:39:21;100259.00;;;10.25;46.01
50105;BME280;47690;39.202;-77.198;2024-03-23T05:41:49;100251.28;;;10.25;45.78
50105;BME280;47690;39.202;-77.198;2024-03-23T05:44:16;100249.56;;;10.26;45.75
50105;BME280;47690;39.202;-77.198;2024-03-23T05:46:43;100231.56;;;10.24;45.55
50105;BME280;47690;39.202;-77.198;2024-03-23T05:49:16;100234.19;;;10.23;45.88
50105;BME280;47690;39.202;-77.198;2024-03-23T05:51:46;100228.16;;;10.22;46.03
50105;BME280;47690;39.202;-77.198;2024-03-23T05:54:14;100224.72;;;10.22;46.15
50105;BME280;47690;39.202;-77.198;2024-03-23T05:56:45;100222.19;;;10.20;45.92
50105;BME280;47690;39.202;-77.198;2024-03-23T05:59:13;100205.94;;;10.15;46.40
50105;BME280;47690;39.202;-77.198;2024-03-23T06:01:40;100206.81;;;10.16;46.56
50105;BME280;47690;39.202;-77.198;2024-03-23T06:04:07;100201.66;;;10.16;46.88
50105;BME280;47690;39.202;-77.198;2024-03-23T06:06:38;100195.59;;;10.18;46.94
50105;BME280;47690;39.202;-77.198;2024-03-23T06:09:06;100187.88;;;10.18;46.69
50105;BME280;47690;39.202;-77.198;2024-03-23T06:11:37;100196.47;;;10.19;46.82
50105;BME280;47690;39.202;-77.198;2024-03-23T06:14:09;100181.91;;;10.18;47.27
50105;BME280;47690;39.202;-77.198;2024-03-23T06:16:37;100189.63;;;10.16;47.13
50105;BME280;47690;39.202;-77.198;2024-03-23T06:19:08;100175.06;;;10.14;47.00
50105;BME280;47690;39.202;-77.198;2024-03-23T06:21:43;100175.06;;;10.15;47.46
50105;BME280;47690;39.202;-77.198;2024-03-23T06:24:12;100169.84;;;10.18;49.39
50105;BME280;47690;39.202;-77.198;2024-03-23T06:26:40;100164.84;;;10.10;46.92
50105;BME280;47690;39.202;-77.198;2024-03-23T06:29:07;100162.25;;;10.10;47.05
50105;BME280;47690;39.202;-77.198;2024-03-23T06:31:38;100158.03;;;10.06;47.32
50105;BME280;47690;39.202;-77.198;2024-03-23T06:34:06;100150.34;;;10.05;47.27
50105;BME280;47690;39.202;-77.198;2024-03-23T06:36:36;100140.94;;;10.01;47.95
50105;BME280;47690;39.202;-77.198;2024-03-23T06:39:06;100143.53;;;9.99;47.83
50105;BME280;47690;39.202;-77.198;2024-03-23T06:41:37;100137.56;;;9.98;47.74
50105;BME280;47690;39.202;-77.198;2024-03-23T06:44:07;100139.28;;;9.98;48.15
50105;BME280;47690;39.202;-77.198;2024-03-23T06:46:38;100135.00;;;9.98;48.11
50105;BME280;47690;39.202;-77.198;2024-03-23T06:49:06;100125.59;;;9.96;48.36
50105;BME280;47690;39.202;-77.198;2024-03-23T06:51:47;100124.66;;;10.00;48.90
50105;BME280;47690;39.202;-77.198;2024-03-23T06:54:14;100111.81;;;9.98;48.21
50105;BME280;47690;39.202;-77.198;2024-03-23T06:56:41;100111.81;;;9.98;48.08
50105;BME280;47690;39.202;-77.198;2024-03-23T06:59:08;100104.94;;;9.99;48.56
50105;BME280;47690;39.202;-77.198;2024-03-23T07:01:38;100102.34;;;10.01;48.15
50105;BME280;47690;39.202;-77.198;2024-03-23T07:04:07;100103.22;;;10.01;48.27
50105;BME280;47690;39.202;-77.198;2024-03-23T07:06:43;100100.59;;;10.03;48.54
50105;BME280;47690;39.202;-77.198;2024-03-23T07:09:12;100098.09;;;10.00;48.34
50105;BME280;47690;39.202;-77.198;2024-03-23T07:11:43;100098.06;;;10.01;48.38
50105;BME280;47690;39.202;-77.198;2024-03-23T07:14:10;100094.63;;;10.01;48.72
50105;BME280;47690;39.202;-77.198;2024-03-23T07:16:40;100092.94;;;10.00;48.84
50105;BME280;47690;39.202;-77.198;2024-03-23T07:19:08;100086.91;;;10.01;48.89
50105;BME280;47690;39.202;-77.198;2024-03-23T07:21:36;100074.91;;;10.01;48.88
50105;BME280;47690;39.202;-77.198;2024-03-23T07:24:10;100077.44;;;10.03;48.57
50105;BME280;47690;39.202;-77.198;2024-03-23T07:26:38;100067.16;;;10.03;48.65
50105;BME280;47690;39.202;-77.198;2024-03-23T07:29:08;100066.25;;;10.05;48.81
50105;BME280;47690;39.202;-77.198;2024-03-23T07:31:37;100054.25;;;10.06;49.17
50105;BME280;47690;39.202;-77.198;2024-03-23T07:34:06;100044.75;;;10.08;49.13
50105;BME280;47690;39.202;-77.198;2024-03-23T07:36:37;100032.78;;;10.07;49.03
50105;BME280;47690;39.202;-77.198;2024-03-23T07:39:10;100020.78;;;10.06;49.26
50105;BME280;47690;39.202;-77.198;2024-03-23T07:41:50;100017.34;;;10.07;49.26
50105;BME280;47690;39.202;-77.198;2024-03-23T07:44:46;100008.81;;;10.05;49.27
50105;BME280;47690;39.202;-77.198;2024-03-23T07:47:13;100001.94;;;10.04;49.10
50105;BME280;47690;39.202;-77.198;2024-03-23T07:49:42;99991.63;;;10.04;49.24
50105;BME280;47690;39.202;-77.198;2024-03-23T07:52:11;99990.00;;;10.00;49.10
50105;BME280;47690;39.202;-77.198;2024-03-23T07:54:39;99988.31;;;9.98;49.10
50105;BME280;47690;39.202;-77.198;2024-03-23T07:57:09;99977.22;;;9.95;49.36
50105;BME280;47690;39.202;-77.198;2024-03-23T07:59:37;99976.41;;;9.93;49.32
50105;BME280;47690;39.202;-77.198;2024-03-23T08:02:05;99976.44;;;9.91;49.46
50105;BME280;47690;39.202;-77.198;2024-03-23T08:04:37;99972.97;;;9.92;50.07
50105;BME280;47690;39.202;-77.198;2024-03-23T08:07:08;99963.53;;;9.93;50.00
50105;BME280;47690;39.202;-77.198;2024-03-23T08:09:37;99961.00;;;9.91;49.75
50105;BME280;47690;39.202;-77.198;2024-03-23T08:12:06;99960.13;;;9.91;50.11
50105;BME280;47690;39.202;-77.198;2024-03-23T08:14:35;99948.16;;;9.88;49.90
50105;BME280;47690;39.202;-77.198;2024-03-23T08:17:05;99953.31;;;9.88;50.24
50105;BME280;47690;39.202;-77.198;2024-03-23T08:19:38;99940.44;;;9.88;50.22
50105;BME280;47690;39.202;-77.198;2024-03-23T08:22:08;99932.78;;;9.87;49.94
50105;BME280;47690;39.202;-77.198;2024-03-23T08:24:36;99931.03;;;9.87;50.57
50105;BME280;47690;39.202;-77.198;2024-03-23T08:27:05;99930.19;;;9.87;50.40
50105;BME280;47690;39.202;-77.198;2024-03-23T08:29:37;99928.47;;;9.87;50.79
50105;BME280;47690;39.202;-77.198;2024-03-23T08:32:06;99920.75;;;9.87;50.66
50105;BME280;47690;39.202;-77.198;2024-03-23T08:34:37;99916.44;;;9.88;50.95
50105;BME280;47690;39.202;-77.198;2024-03-23T08:37:05;99916.50;;;9.84;50.74
50105;BME280;47690;39.202;-77.198;2024-03-23T08:39:37;99910.50;;;9.84;50.85
50105;BME280;47690;39.202;-77.198;2024-03-23T08:42:06;99905.41;;;9.81;50.84
50105;BME280;47690;39.202;-77.198;2024-03-23T08:44:41;99913.06;;;9.86;51.54
50105;BME280;47690;39.202;-77.198;2024-03-23T08:47:10;99902.81;;;9.82;50.58
50105;BME280;47690;39.202;-77.198;2024-03-23T08:49:37;99904.50;;;9.83;50.84
50105;BME280;47690;39.202;-77.198;2024-03-23T08:52:08;99897.69;;;9.81;50.80
50105;BME280;47690;39.202;-77.198;2024-03-23T08:54:36;99896.84;;;9.82;51.21
50105;BME280;47690;39.202;-77.198;2024-03-23T08:57:08;99888.25;;;9.83;51.46
50105;BME280;47690;39.202;-77.198;2024-03-23T08:59:38;99870.22;;;9.83;51.33
50105;BME280;47690;39.202;-77.198;2024-03-23T09:02:06;99871.94;;;9.82;51.06
50105;BME280;47690;39.202;-77.198;2024-03-23T09:04:39;99873.63;;;9.83;52.16
50105;BME280;47690;39.202;-77.198;2024-03-23T09:07:07;99866.81;;;9.82;51.27
50105;BME280;47690;39.202;-77.198;2024-03-23T09:09:39;99864.25;;;9.81;51.68
50105;BME280;47690;39.202;-77.198;2024-03-23T09:12:07;99853.13;;;9.80;51.66
50105;BME280;47690;39.202;-77.198;2024-03-23T09:14:39;99855.69;;;9.80;51.99
50105;BME280;47690;39.202;-77.198;2024-03-23T09:17:07;99848.88;;;9.78;51.69
50105;BME280;47690;39.202;-77.198;2024-03-23T09:19:40;99843.75;;;9.78;52.29
50105;BME280;47690;39.202;-77.198;2024-03-23T09:22:10;99841.19;;;9.76;51.94
50105;BME280;47690;39.202;-77.198;2024-03-23T09:24:38;99839.47;;;9.77;52.12
50105;BME280;47690;39.202;-77.198;2024-03-23T09:27:06;99834.34;;;9.77;52.22
50105;BME280;47690;39.202;-77.198;2024-03-23T09:29:39;99836.03;;;9.78;52.26
50105;BME280;47690;39.202;-77.198;2024-03-23T09:32:09;99845.44;;;9.79;51.92
50105;BME280;47690;39.202;-77.198;2024-03-23T09:34:38;99835.13;;;9.79;52.08
50105;BME280;47690;39.202;-77.198;2024-03-23T09:37:06;99835.13;;;9.80;52.50
50105;BME280;47690;39.202;-77.198;2024-03-23T09:39:37;99830.81;;;9.81;52.97
50105;BME280;47690;39.202;-77.198;2024-03-23T09:42:06;99824.84;;;9.79;52.32
50105;BME280;47690;39.202;-77.198;2024-03-23T09:44:36;99824.03;;;9.78;52.66
50105;BME280;47690;39.202;-77.198;2024-03-23T09:47:05;99817.13;;;9.79;52.86
50105;BME280;47690;39.202;-77.198;2024-03-23T09:49:39;99820.50;;;9.81;53.02
50105;BME280;47690;39.202;-77.198;2024-03-23T09:52:07;99820.56;;;9.79;52.47
50105;BME280;47690;39.202;-77.198;2024-03-23T09:54:37;99815.41;;;9.79;53.04
50105;BME280;47690;39.202;-77.198;2024-03-23T09:57:09;99806.84;;;9.79;53.48
50105;BME280;47690;39.202;-77.198;2024-03-23T09:59:38;99809.41;;;9.80;52.93
50105;BME280;47690;39.202;-77.198;2024-03-23T10:02:07;99805.13;;;9.79;52.70
50105;BME280;47690;39.202;-77.198;2024-03-23T10:04:41;99795.69;;;9.80;53.20
50105;BME280;47690;39.202;-77.198;2024-03-23T10:07:13;99789.72;;;9.78;53.50
50105;BME280;47690;39.202;-77.198;2024-03-23T10:09:42;99782.78;;;9.81;53.17
50105;BME280;47690;39.202;-77.198;2024-03-23T10:12:16;99772.50;;;9.81;53.71
50105;BME280;47690;39.202;-77.198;2024-03-23T10:14:44;99773.31;;;9.83;53.25
50105;BME280;47690;39.202;-77.198;2024-03-23T10:17:20;99767.34;;;9.81;53.72
50105;BME280;47690;39.202;-77.198;2024-03-23T10:19:52;99759.78;;;9.74;53.17
50105;BME280;47690;39.202;-77.198;2024-03-23T10:22:25;99758.13;;;9.71;53.10
50105;BME280;47690;39.202;-77.198;2024-03-23T10:25:10;99752.13;;;9.72;54.36
50105;BME280;47690;39.202;-77.198;2024-03-23T10:27:38;99741.84;;;9.70;53.71
50105;BME280;47690;39.202;-77.198;2024-03-23T10:30:11;99740.16;;;9.69;54.18
50105;BME280;47690;39.202;-77.198;2024-03-23T10:32:46;99739.28;;;9.70;53.82
50105;BME280;47690;39.202;-77.198;2024-03-23T10:35:20;99734.06;;;9.74;53.92
50105;BME280;47690;39.202;-77.198;2024-03-23T10:37:51;99725.56;;;9.70;53.69
50105;BME280;47690;39.202;-77.198;2024-03-23T10:40:18;99723.84;;;9.70;53.56
50105;BME280;47690;39.202;-77.198;2024-03-23T10:42:46;99705.88;;;9.69;53.83
50105;BME280;47690;39.202;-77.198;2024-03-23T10:45:15;99699.91;;;9.67;53.87
50105;BME280;47690;39.202;-77.198;2024-03-23T10:47:42;99691.44;;;9.62;53.61
50105;BME280;47690;39.202;-77.198;2024-03-23T10:50:09;99682.09;;;9.57;54.10
50105;BME280;47690;39.202;-77.198;2024-03-23T10:52:36;99680.56;;;9.49;53.91
50105;BME280;47690;39.202;-77.198;2024-03-23T10:55:06;99670.38;;;9.42;54.57
50105;BME280;47690;39.202;-77.198;2024-03-23T10:57:42;99661.00;;;9.40;54.49
50105;BME280;47690;39.202;-77.198;2024-03-23T11:00:12;99659.41;;;9.36;54.71
50105;BME280;47690;39.202;-77.198;2024-03-23T11:02:40;99650.03;;;9.32;54.36
50105;BME280;47690;39.202;-77.198;2024-03-23T11:05:31;99652.59;;;9.33;55.92
50105;BME280;47690;39.202;-77.198;2024-03-23T11:08:07;99648.31;;;9.32;55.00
50105;BME280;47690;39.202;-77.198;2024-03-23T11:10:37;99648.22;;;9.37;55.03
50105;BME280;47690;39.202;-77.198;2024-03-23T11:13:23;99639.63;;;9.38;55.79
50105;BME280;47690;39.202;-77.198;2024-03-23T11:15:50;99644.78;;;9.38;54.86
50105;BME280;47690;39.202;-77.198;2024-03-23T11:18:21;99643.00;;;9.40;55.51
50105;BME280;47690;39.202;-77.198;2024-03-23T11:20:48;99645.56;;;9.41;55.13
50105;BME280;47690;39.202;-77.198;2024-03-23T11:23:28;99639.50;;;9.46;55.75
50105;BME280;47690;39.202;-77.198;2024-03-23T11:25:57;99620.56;;;9.48;55.22
50105;BME280;47690;39.202;-77.198;2024-03-23T11:28:25;99623.22;;;9.45;55.19
50105;BME280;47690;39.202;-77.198;2024-03-23T11:30:52;99626.63;;;9.46;55.12
50105;BME280;47690;39.202;-77.198;2024-03-23T11:33:25;99614.63;;;9.45;55.16
50105;BME280;47690;39.202;-77.198;2024-03-23T11:35:52;99603.50;;;9.46;55.18
50105;BME280;47690;39.202;-77.198;2024-03-23T11:38:20;99611.22;;;9.46;55.39
50105;BME280;47690;39.202;-77.198;2024-03-23T11:40:48;99615.66;;;9.37;55.08
50105;BME280;47690;39.202;-77.198;2024-03-23T11:43:17;99608.97;;;9.30;55.36
50105;BME280;47690;39.202;-77.198;2024-03-23T11:45:47;99599.59;;;9.26;55.70
50105;BME280;47690;39.202;-77.198;2024-03-23T11:48:16;99591.81;;;9.29;55.69
50105;BME280;47690;39.202;-77.198;2024-03-23T11:50:57;99601.16;;;9.35;56.33
50105;BME280;47690;39.202;-77.198;2024-03-23T11:53:25;99600.28;;;9.36;55.78
50105;BME280;47690;39.202;-77.198;2024-03-23T11:55:59;99596.72;;;9.41;55.99
50105;BME280;47690;39.202;-77.198;2024-03-23T11:58:37;99610.34;;;9.47;56.21
50105;BME280;47690;39.202;-77.198;2024-03-23T12:01:10;99587.22;;;9.45;55.89
50105;BME280;47690;39.202;-77.198;2024-03-23T12:03:37;99588.97;;;9.43;55.74
50105;BME280;47690;39.202;-77.198;2024-03-23T12:06:06;99577.03;;;9.40;55.75
50105;BME280;47690;39.202;-77.198;2024-03-23T12:08:36;99572.72;;;9.41;56.32
50105;BME280;47690;39.202;-77.198;2024-03-23T12:11:17;99571.00;;;9.43;56.58
50105;BME280;47690;39.202;-77.198;2024-03-23T12:13:45;99565.00;;;9.42;56.46
50105;BME280;47690;39.202;-77.198;2024-03-23T12:16:18;99557.22;;;9.46;56.32
50105;BME280;47690;39.202;-77.198;2024-03-23T12:18:50;99566.69;;;9.43;56.29
50105;BME280;47690;39.202;-77.198;2024-03-23T12:21:24;99576.94;;;9.45;56.02
50105;BME280;47690;39.202;-77.198;2024-03-23T12:23:51;99602.63;;;9.47;56.01
50105;BME280;47690;39.202;-77.198;2024-03-23T12:26:19;99595.72;;;9.49;56.16
50105;BME280;47690;39.202;-77.198;2024-03-23T12:28:47;99580.25;;;9.50;56.55
50105;BME280;47690;39.202;-77.198;2024-03-23T12:31:15;99570.66;;;9.59;56.16
50105;BME280;47690;39.202;-77.198;2024-03-23T12:33:43;99569.69;;;9.63;56.51
50105;BME280;47690;39.202;-77.198;2024-03-23T12:36:11;99570.53;;;9.65;56.59
50105;BME280;47690;39.202;-77.198;2024-03-23T12:38:39;99573.03;;;9.66;56.46
50105;BME280;47690;39.202;-77.198;2024-03-23T12:41:07;99583.31;;;9.66;56.51
50105;BME280;47690;39.202;-77.198;2024-03-23T12:43:37;99583.31;;;9.68;56.52
50105;BME280;47690;39.202;-77.198;2024-03-23T12:46:06;99583.31;;;9.68;56.70
50105;BME280;47690;39.202;-77.198;2024-03-23T12:48:38;99556.75;;;9.67;56.72
50105;BME280;47690;39.202;-77.198;2024-03-23T12:51:06;99554.25;;;9.63;56.33
50105;BME280;47690;39.202;-77.198;2024-03-23T12:53:42;99524.47;;;9.54;57.20
50105;BME280;47690;39.202;-77.198;2024-03-23T12:56:13;99526.44;;;9.42;56.48
50105;BME280;47690;39.202;-77.198;2024-03-23T12:58:40;99535.97;;;9.37;56.39
50105;BME280;47690;39.202;-77.198;2024-03-23T13:01:08;99554.03;;;9.34;56.71
50105;BME280;47690;39.202;-77.198;2024-03-23T13:03:41;99552.25;;;9.36;57.39
50105;BME280;47690;39.202;-77.198;2024-03-23T13:06:09;99539.38;;;9.38;57.00
50105;BME280;47690;39.202;-77.198;2024-03-23T13:08:37;99522.19;;;9.41;57.55
50105;BME280;47690;39.202;-77.198;2024-03-23T13:11:07;99515.34;;;9.40;57.44
50105;BME280;47690;39.202;-77.198;2024-03-23T13:13:39;99508.56;;;9.36;57.36
50105;BME280;47690;39.202;-77.198;2024-03-23T13:16:08;99511.22;;;9.33;57.24
50105;BME280;47690;39.202;-77.198;2024-03-23T13:18:38;99524.09;;;9.32;57.80
50105;BME280;47690;39.202;-77.198;2024-03-23T13:21:06;99519.00;;;9.30;57.63
50105;BME280;47690;39.202;-77.198;2024-03-23T13:23:39;99511.22;;;9.33;58.06
50105;BME280;47690;39.202;-77.198;2024-03-23T13:26:08;99511.00;;;9.42;60.11
50105;BME280;47690;39.202;-77.198;2024-03-23T13:28:36;99493.91;;;9.41;57.48
50105;BME280;47690;39.202;-77.198;2024-03-23T13:31:05;99499.91;;;9.40;57.67
50105;BME280;47690;39.202;-77.198;2024-03-23T13:33:37;99497.31;;;9.42;58.55
50105;BME280;47690;39.202;-77.198;2024-03-23T13:36:06;99493.81;;;9.45;58.08
50105;BME280;47690;39.202;-77.198;2024-03-23T13:38:37;99487.75;;;9.49;58.26
50105;BME280;47690;39.202;-77.198;2024-03-23T13:41:07;99478.38;;;9.46;57.68
50105;BME280;47690;39.202;-77.198;2024-03-23T13:43:37;99465.63;;;9.41;58.18
50105;BME280;47690;39.202;-77.198;2024-03-23T13:46:06;99451.13;;;9.37;58.11
50105;BME280;47690;39.202;-77.198;2024-03-23T13:48:36;99442.72;;;9.32;58.11